Terminal Aerodrome Forecast
Issued by NWS

Home | Current Version | Previous Version | Text Only | Print | Product List | Glossary On
Versions: 1 2 3 4 5 6 7 8 9 10 11 12 13 14 15 16 17
000
FTUS41 KGYX 281120
TAFPSM
TAF
KPSM 281120Z 2812/2912 23007KT 6SM -RA SCT020 BKN035
     FM281500 28011G20KT P6SM SCT050 BKN100
     FM290000 30005KT P6SM BKN250=

USA.gov is the U.S. government's official web portal to all federal, state and local government web resources and services.